sensor_id;sensor_type;location;lat;lon;timestamp;P1;durP1;ratioP1;P2;durP2;ratioP2
34060;SDS011;20336;-33.424;-70.638;2023-09-19T00:00:45;20.63;;;13.53;;
34060;SDS011;20336;-33.424;-70.638;2023-09-19T00:03:13;25.63;;;15.63;;
34060;SDS011;20336;-33.424;-70.638;2023-09-19T00:05:39;25.17;;;14.97;;
34060;SDS011;20336;-33.424;-70.638;2023-09-19T00:08:09;27.90;;;14.80;;
34060;SDS011;20336;-33.424;-70.638;2023-09-19T00:10:38;27.17;;;15.57;;
34060;SDS011;20336;-33.424;-70.638;2023-09-19T00:13:07;25.47;;;16.23;;
34060;SDS011;20336;-33.424;-70.638;2023-09-19T00:15:44;30.43;;;16.47;;
34060;SDS011;20336;-33.424;-70.638;2023-09-19T00:18:14;28.60;;;16.17;;
34060;SDS011;20336;-33.424;-70.638;2023-09-19T00:20:42;25.90;;;16.33;;
34060;SDS011;20336;-33.424;-70.638;2023-09-19T00:23:13;28.83;;;16.67;;
34060;SDS011;20336;-33.424;-70.638;2023-09-19T00:25:40;23.23;;;16.30;;
34060;SDS011;20336;-33.424;-70.638;2023-09-19T00:28:07;28.97;;;17.47;;
34060;SDS011;20336;-33.424;-70.638;2023-09-19T00:30:35;27.97;;;16.90;;
34060;SDS011;20336;-33.424;-70.638;2023-09-19T00:33:03;30.17;;;17.87;;
34060;SDS011;20336;-33.424;-70.638;2023-09-19T00:35:33;32.17;;;19.20;;
34060;SDS011;20336;-33.424;-70.638;2023-09-19T00:38:00;31.17;;;18.27;;
34060;SDS011;20336;-33.424;-70.638;2023-09-19T00:40:27;31.17;;;18.87;;
34060;SDS011;20336;-33.424;-70.638;2023-09-19T00:42:57;34.23;;;19.33;;
34060;SDS011;20336;-33.424;-70.638;2023-09-19T00:45:27;31.53;;;19.27;;
34060;SDS011;20336;-33.424;-70.638;2023-09-19T00:47:54;33.10;;;19.77;;
34060;SDS011;20336;-33.424;-70.638;2023-09-19T00:50:23;37.57;;;21.23;;
34060;SDS011;20336;-33.424;-70.638;2023-09-19T00:52:53;33.13;;;20.70;;
34060;SDS011;20336;-33.424;-70.638;2023-09-19T00:55:23;29.73;;;19.93;;
34060;SDS011;20336;-33.424;-70.638;2023-09-19T00:57:50;38.33;;;21.90;;
34060;SDS011;20336;-33.424;-70.638;2023-09-19T01:00:18;35.93;;;20.87;;
34060;SDS011;20336;-33.424;-70.638;2023-09-19T01:02:46;32.17;;;20.70;;
34060;SDS011;20336;-33.424;-70.638;2023-09-19T01:05:13;36.40;;;21.63;;
34060;SDS011;20336;-33.424;-70.638;2023-09-19T01:07:40;34.93;;;21.50;;
34060;SDS011;20336;-33.424;-70.638;2023-09-19T01:10:08;33.80;;;21.43;;
34060;SDS011;20336;-33.424;-70.638;2023-09-19T01:15:49;36.87;;;22.40;;
34060;SDS011;20336;-33.424;-70.638;2023-09-19T01:18:00;32.67;;;22.00;;
34060;SDS011;20336;-33.424;-70.638;2023-09-19T01:20:36;32.57;;;20.53;;
34060;SDS011;20336;-33.424;-70.638;2023-09-19T01:23:18;37.00;;;22.40;;
34060;SDS011;20336;-33.424;-70.638;2023-09-19T01:26:11;37.17;;;21.73;;
34060;SDS011;20336;-33.424;-70.638;2023-09-19T01:28:48;36.87;;;22.40;;
34060;SDS011;20336;-33.424;-70.638;2023-09-19T01:31:23;37.60;;;22.03;;
34060;SDS011;20336;-33.424;-70.638;2023-09-19T01:33:58;36.67;;;22.27;;
34060;SDS011;20336;-33.424;-70.638;2023-09-19T01:36:25;31.83;;;20.97;;
34060;SDS011;20336;-33.424;-70.638;2023-09-19T01:38:52;33.00;;;20.40;;
34060;SDS011;20336;-33.424;-70.638;2023-09-19T01:41:32;29.80;;;19.73;;
34060;SDS011;20336;-33.424;-70.638;2023-09-19T01:44:00;31.63;;;19.87;;
34060;SDS011;20336;-33.424;-70.638;2023-09-19T01:46:39;30.37;;;18.40;;
34060;SDS011;20336;-33.424;-70.638;2023-09-19T01:49:27;30.33;;;18.33;;
34060;SDS011;20336;-33.424;-70.638;2023-09-19T01:52:13;28.83;;;17.57;;
34060;SDS011;20336;-33.424;-70.638;2023-09-19T01:55:05;30.87;;;17.93;;
34060;SDS011;20336;-33.424;-70.638;2023-09-19T01:58:17;31.63;;;19.70;;
34060;SDS011;20336;-33.424;-70.638;2023-09-19T02:00:22;33.13;;;18.60;;
34060;SDS011;20336;-33.424;-70.638;2023-09-19T02:02:49;28.60;;;17.87;;
34060;SDS011;20336;-33.424;-70.638;2023-09-19T02:05:24;28.00;;;17.00;;
34060;SDS011;20336;-33.424;-70.638;2023-09-19T02:07:53;27.77;;;16.10;;
34060;SDS011;20336;-33.424;-70.638;2023-09-19T02:10:21;23.73;;;15.50;;
34060;SDS011;20336;-33.424;-70.638;2023-09-19T02:12:49;22.33;;;14.70;;
34060;SDS011;20336;-33.424;-70.638;2023-09-19T02:15:16;19.97;;;13.20;;
34060;SDS011;20336;-33.424;-70.638;2023-09-19T02:17:43;25.30;;;15.00;;
34060;SDS011;20336;-33.424;-70.638;2023-09-19T02:20:12;26.07;;;16.00;;
34060;SDS011;20336;-33.424;-70.638;2023-09-19T02:22:42;23.43;;;14.73;;
34060;SDS011;20336;-33.424;-70.638;2023-09-19T02:25:10;23.33;;;14.17;;
34060;SDS011;20336;-33.424;-70.638;2023-09-19T02:27:37;21.33;;;14.10;;
34060;SDS011;20336;-33.424;-70.638;2023-09-19T02:30:05;23.90;;;14.50;;
34060;SDS011;20336;-33.424;-70.638;2023-09-19T02:32:32;21.03;;;14.33;;
34060;SDS011;20336;-33.424;-70.638;2023-09-19T02:35:04;23.93;;;15.27;;
34060;SDS011;20336;-33.424;-70.638;2023-09-19T02:37:31;25.90;;;14.97;;
34060;SDS011;20336;-33.424;-70.638;2023-09-19T02:39:58;22.73;;;14.37;;
34060;SDS011;20336;-33.424;-70.638;2023-09-19T02:42:25;21.67;;;13.53;;
34060;SDS011;20336;-33.424;-70.638;2023-09-19T02:44:52;22.67;;;14.10;;
34060;SDS011;20336;-33.424;-70.638;2023-09-19T02:47:19;22.97;;;14.93;;
34060;SDS011;20336;-33.424;-70.638;2023-09-19T02:49:47;28.87;;;17.97;;
34060;SDS011;20336;-33.424;-70.638;2023-09-19T02:52:14;27.20;;;17.10;;
34060;SDS011;20336;-33.424;-70.638;2023-09-19T02:54:41;27.10;;;16.83;;
34060;SDS011;20336;-33.424;-70.638;2023-09-19T02:57:10;27.73;;;17.63;;
34060;SDS011;20336;-33.424;-70.638;2023-09-19T02:59:39;27.13;;;17.83;;
34060;SDS011;20336;-33.424;-70.638;2023-09-19T03:02:07;31.33;;;17.70;;
34060;SDS011;20336;-33.424;-70.638;2023-09-19T03:04:34;32.23;;;19.37;;
34060;SDS011;20336;-33.424;-70.638;2023-09-19T03:07:02;27.50;;;16.97;;
34060;SDS011;20336;-33.424;-70.638;2023-09-19T03:09:29;29.07;;;17.00;;
34060;SDS011;20336;-33.424;-70.638;2023-09-19T03:11:56;30.13;;;17.43;;
34060;SDS011;20336;-33.424;-70.638;2023-09-19T03:14:24;24.73;;;17.03;;
34060;SDS011;20336;-33.424;-70.638;2023-09-19T03:16:55;33.13;;;18.50;;
34060;SDS011;20336;-33.424;-70.638;2023-09-19T03:19:22;36.17;;;21.13;;
34060;SDS011;20336;-33.424;-70.638;2023-09-19T03:21:52;36.60;;;22.50;;
34060;SDS011;20336;-33.424;-70.638;2023-09-19T03:24:19;37.50;;;23.30;;
34060;SDS011;20336;-33.424;-70.638;2023-09-19T03:26:46;35.13;;;22.97;;
34060;SDS011;20336;-33.424;-70.638;2023-09-19T03:29:13;33.80;;;21.57;;
34060;SDS011;20336;-33.424;-70.638;2023-09-19T03:31:41;42.27;;;24.93;;
34060;SDS011;20336;-33.424;-70.638;2023-09-19T03:34:08;34.27;;;22.50;;
34060;SDS011;20336;-33.424;-70.638;2023-09-19T03:36:35;38.87;;;22.90;;
34060;SDS011;20336;-33.424;-70.638;2023-09-19T03:39:02;34.00;;;23.60;;
34060;SDS011;20336;-33.424;-70.638;2023-09-19T03:41:33;39.27;;;24.77;;
34060;SDS011;20336;-33.424;-70.638;2023-09-19T03:44:02;41.27;;;25.17;;
34060;SDS011;20336;-33.424;-70.638;2023-09-19T03:46:29;36.70;;;23.57;;
34060;SDS011;20336;-33.424;-70.638;2023-09-19T03:48:57;37.90;;;25.47;;
34060;SDS011;20336;-33.424;-70.638;2023-09-19T03:51:24;48.57;;;25.53;;
34060;SDS011;20336;-33.424;-70.638;2023-09-19T03:53:51;44.10;;;24.43;;
34060;SDS011;20336;-33.424;-70.638;2023-09-19T03:56:18;46.13;;;26.93;;
34060;SDS011;20336;-33.424;-70.638;2023-09-19T03:58:45;39.20;;;24.67;;
34060;SDS011;20336;-33.424;-70.638;2023-09-19T04:01:12;39.30;;;25.60;;
34060;SDS011;20336;-33.424;-70.638;2023-09-19T04:03:39;45.57;;;28.23;;
34060;SDS011;20336;-33.424;-70.638;2023-09-19T04:06:17;42.50;;;28.07;;
34060;SDS011;20336;-33.424;-70.638;2023-09-19T04:08:44;37.50;;;25.27;;
34060;SDS011;20336;-33.424;-70.638;2023-09-19T04:11:12;47.80;;;28.37;;
34060;SDS011;20336;-33.424;-70.638;2023-09-19T04:13:39;43.03;;;27.77;;
34060;SDS011;20336;-33.424;-70.638;2023-09-19T04:16:07;49.20;;;29.77;;
34060;SDS011;20336;-33.424;-70.638;2023-09-19T04:18:34;49.13;;;28.70;;
34060;SDS011;20336;-33.424;-70.638;2023-09-19T04:21:04;48.70;;;28.80;;
34060;SDS011;20336;-33.424;-70.638;2023-09-19T04:23:32;41.27;;;26.73;;
34060;SDS011;20336;-33.424;-70.638;2023-09-19T04:25:59;48.50;;;30.27;;
34060;SDS011;20336;-33.424;-70.638;2023-09-19T04:28:26;46.83;;;28.27;;
34060;SDS011;20336;-33.424;-70.638;2023-09-19T04:30:56;43.33;;;28.60;;
34060;SDS011;20336;-33.424;-70.638;2023-09-19T04:33:24;47.50;;;29.37;;
34060;SDS011;20336;-33.424;-70.638;2023-09-19T04:35:52;44.63;;;28.90;;
34060;SDS011;20336;-33.424;-70.638;2023-09-19T04:38:20;43.37;;;28.83;;
34060;SDS011;20336;-33.424;-70.638;2023-09-19T04:40:47;47.83;;;30.13;;
34060;SDS011;20336;-33.424;-70.638;2023-09-19T04:43:14;46.80;;;27.63;;
34060;SDS011;20336;-33.424;-70.638;2023-09-19T04:45:41;51.70;;;32.53;;
34060;SDS011;20336;-33.424;-70.638;2023-09-19T04:48:08;45.37;;;29.03;;
34060;SDS011;20336;-33.424;-70.638;2023-09-19T04:50:36;51.17;;;30.37;;
34060;SDS011;20336;-33.424;-70.638;2023-09-19T04:53:04;42.60;;;27.67;;
34060;SDS011;20336;-33.424;-70.638;2023-09-19T04:55:32;44.90;;;28.00;;
34060;SDS011;20336;-33.424;-70.638;2023-09-19T04:57:59;49.30;;;29.23;;
34060;SDS011;20336;-33.424;-70.638;2023-09-19T05:00:26;47.73;;;28.70;;
34060;SDS011;20336;-33.424;-70.638;2023-09-19T05:02:56;50.37;;;29.50;;
34060;SDS011;20336;-33.424;-70.638;2023-09-19T05:05:23;49.10;;;30.53;;
34060;SDS011;20336;-33.424;-70.638;2023-09-19T05:07:51;44.33;;;28.30;;
34060;SDS011;20336;-33.424;-70.638;2023-09-19T05:10:22;49.30;;;29.40;;
34060;SDS011;20336;-33.424;-70.638;2023-09-19T05:12:49;50.70;;;29.13;;
34060;SDS011;20336;-33.424;-70.638;2023-09-19T05:15:19;44.50;;;28.53;;
34060;SDS011;20336;-33.424;-70.638;2023-09-19T05:17:50;53.97;;;29.90;;
34060;SDS011;20336;-33.424;-70.638;2023-09-19T05:20:17;47.47;;;28.43;;
34060;SDS011;20336;-33.424;-70.638;2023-09-19T05:22:58;44.90;;;28.77;;
34060;SDS011;20336;-33.424;-70.638;2023-09-19T05:25:28;48.00;;;28.87;;
34060;SDS011;20336;-33.424;-70.638;2023-09-19T05:27:56;48.13;;;29.57;;
34060;SDS011;20336;-33.424;-70.638;2023-09-19T05:30:23;48.43;;;28.80;;
34060;SDS011;20336;-33.424;-70.638;2023-09-19T05:32:53;50.90;;;29.67;;
34060;SDS011;20336;-33.424;-70.638;2023-09-19T05:35:20;47.93;;;28.57;;
34060;SDS011;20336;-33.424;-70.638;2023-09-19T05:37:48;46.20;;;27.83;;
34060;SDS011;20336;-33.424;-70.638;2023-09-19T05:40:19;49.87;;;28.07;;
34060;SDS011;20336;-33.424;-70.638;2023-09-19T05:42:46;48.47;;;27.53;;
34060;SDS011;20336;-33.424;-70.638;2023-09-19T05:45:13;43.37;;;26.77;;
34060;SDS011;20336;-33.424;-70.638;2023-09-19T05:47:47;40.93;;;25.27;;
34060;SDS011;20336;-33.424;-70.638;2023-09-19T05:50:16;43.23;;;26.43;;
34060;SDS011;20336;-33.424;-70.638;2023-09-19T05:52:51;45.83;;;26.17;;
34060;SDS011;20336;-33.424;-70.638;2023-09-19T05:55:18;46.67;;;25.67;;
34060;SDS011;20336;-33.424;-70.638;2023-09-19T05:57:49;44.90;;;27.03;;
34060;SDS011;20336;-33.424;-70.638;2023-09-19T06:00:18;45.13;;;26.10;;
34060;SDS011;20336;-33.424;-70.638;2023-09-19T06:02:54;42.70;;;25.23;;
34060;SDS011;20336;-33.424;-70.638;2023-09-19T06:05:22;44.93;;;24.90;;
34060;SDS011;20336;-33.424;-70.638;2023-09-19T06:07:50;43.57;;;23.90;;
34060;SDS011;20336;-33.424;-70.638;2023-09-19T06:10:17;41.53;;;23.53;;
34060;SDS011;20336;-33.424;-70.638;2023-09-19T06:12:46;43.73;;;24.33;;
34060;SDS011;20336;-33.424;-70.638;2023-09-19T06:15:13;37.33;;;23.37;;
34060;SDS011;20336;-33.424;-70.638;2023-09-19T06:17:47;37.60;;;23.00;;
34060;SDS011;20336;-33.424;-70.638;2023-09-19T06:20:15;38.57;;;22.77;;
34060;SDS011;20336;-33.424;-70.638;2023-09-19T06:22:42;39.33;;;24.77;;
34060;SDS011;20336;-33.424;-70.638;2023-09-19T06:25:10;39.93;;;23.93;;
34060;SDS011;20336;-33.424;-70.638;2023-09-19T06:27:38;37.87;;;22.60;;
34060;SDS011;20336;-33.424;-70.638;2023-09-19T06:30:09;41.40;;;24.13;;
34060;SDS011;20336;-33.424;-70.638;2023-09-19T06:32:41;35.87;;;23.50;;
34060;SDS011;20336;-33.424;-70.638;2023-09-19T06:35:12;39.53;;;25.33;;
34060;SDS011;20336;-33.424;-70.638;2023-09-19T06:37:39;45.50;;;26.00;;
34060;SDS011;20336;-33.424;-70.638;2023-09-19T06:40:10;40.37;;;24.40;;
34060;SDS011;20336;-33.424;-70.638;2023-09-19T06:42:42;38.77;;;25.37;;
34060;SDS011;20336;-33.424;-70.638;2023-09-19T06:45:12;42.10;;;26.07;;
34060;SDS011;20336;-33.424;-70.638;2023-09-19T06:47:43;48.77;;;28.57;;
34060;SDS011;20336;-33.424;-70.638;2023-09-19T06:50:11;44.27;;;29.43;;
34060;SDS011;20336;-33.424;-70.638;2023-09-19T06:52:40;44.80;;;28.60;;
34060;SDS011;20336;-33.424;-70.638;2023-09-19T06:55:07;51.17;;;29.20;;
34060;SDS011;20336;-33.424;-70.638;2023-09-19T06:57:39;43.27;;;29.03;;
34060;SDS011;20336;-33.424;-70.638;2023-09-19T07:00:09;44.53;;;29.07;;
34060;SDS011;20336;-33.424;-70.638;2023-09-19T07:05:27;42.77;;;27.87;;
34060;SDS011;20336;-33.424;-70.638;2023-09-19T07:07:54;45.93;;;29.33;;
34060;SDS011;20336;-33.424;-70.638;2023-09-19T07:10:21;46.43;;;31.37;;
34060;SDS011;20336;-33.424;-70.638;2023-09-19T07:12:58;47.90;;;32.00;;
34060;SDS011;20336;-33.424;-70.638;2023-09-19T07:15:26;59.80;;;37.37;;
34060;SDS011;20336;-33.424;-70.638;2023-09-19T07:17:53;55.50;;;31.13;;
34060;SDS011;20336;-33.424;-70.638;2023-09-19T07:20:21;52.00;;;30.07;;
34060;SDS011;20336;-33.424;-70.638;2023-09-19T07:22:51;49.60;;;28.67;;
34060;SDS011;20336;-33.424;-70.638;2023-09-19T07:25:20;48.93;;;29.63;;
34060;SDS011;20336;-33.424;-70.638;2023-09-19T07:27:48;46.53;;;28.33;;
34060;SDS011;20336;-33.424;-70.638;2023-09-19T07:30:16;41.07;;;27.27;;
34060;SDS011;20336;-33.424;-70.638;2023-09-19T07:32:43;44.33;;;27.60;;
34060;SDS011;20336;-33.424;-70.638;2023-09-19T07:35:10;48.00;;;28.90;;
34060;SDS011;20336;-33.424;-70.638;2023-09-19T07:37:37;44.20;;;26.57;;
34060;SDS011;20336;-33.424;-70.638;2023-09-19T07:40:05;45.77;;;27.83;;
34060;SDS011;20336;-33.424;-70.638;2023-09-19T07:42:36;46.83;;;29.80;;
34060;SDS011;20336;-33.424;-70.638;2023-09-19T07:45:06;42.33;;;27.00;;
34060;SDS011;20336;-33.424;-70.638;2023-09-19T07:47:33;44.43;;;29.70;;
34060;SDS011;20336;-33.424;-70.638;2023-09-19T07:50:01;49.20;;;29.87;;
34060;SDS011;20336;-33.424;-70.638;2023-09-19T07:52:28;45.10;;;28.23;;
34060;SDS011;20336;-33.424;-70.638;2023-09-19T07:54:55;50.97;;;28.10;;
34060;SDS011;20336;-33.424;-70.638;2023-09-19T07:57:26;47.43;;;27.90;;
34060;SDS011;20336;-33.424;-70.638;2023-09-19T07:59:54;49.90;;;28.03;;
34060;SDS011;20336;-33.424;-70.638;2023-09-19T08:02:22;51.43;;;29.50;;
34060;SDS011;20336;-33.424;-70.638;2023-09-19T08:04:49;53.07;;;30.67;;
34060;SDS011;20336;-33.424;-70.638;2023-09-19T08:07:17;49.63;;;28.40;;
34060;SDS011;20336;-33.424;-70.638;2023-09-19T08:09:44;47.87;;;28.77;;
34060;SDS011;20336;-33.424;-70.638;2023-09-19T08:12:11;49.20;;;29.60;;
34060;SDS011;20336;-33.424;-70.638;2023-09-19T08:14:40;45.83;;;29.97;;
34060;SDS011;20336;-33.424;-70.638;2023-09-19T08:17:07;51.57;;;31.10;;
34060;SDS011;20336;-33.424;-70.638;2023-09-19T08:19:34;55.37;;;31.67;;
34060;SDS011;20336;-33.424;-70.638;2023-09-19T08:22:01;57.37;;;30.83;;
34060;SDS011;20336;-33.424;-70.638;2023-09-19T08:24:29;47.50;;;30.40;;
34060;SDS011;20336;-33.424;-70.638;2023-09-19T08:26:56;51.07;;;31.27;;
34060;SDS011;20336;-33.424;-70.638;2023-09-19T08:29:24;57.27;;;32.73;;
34060;SDS011;20336;-33.424;-70.638;2023-09-19T08:31:56;56.93;;;33.43;;
34060;SDS011;20336;-33.424;-70.638;2023-09-19T08:34:24;51.33;;;33.03;;
34060;SDS011;20336;-33.424;-70.638;2023-09-19T08:36:51;52.17;;;33.13;;
34060;SDS011;20336;-33.424;-70.638;2023-09-19T08:39:22;56.33;;;36.10;;
34060;SDS011;20336;-33.424;-70.638;2023-09-19T08:41:49;61.07;;;38.83;;
34060;SDS011;20336;-33.424;-70.638;2023-09-19T08:44:16;64.00;;;39.90;;
34060;SDS011;20336;-33.424;-70.638;2023-09-19T08:46:44;65.47;;;41.13;;
34060;SDS011;20336;-33.424;-70.638;2023-09-19T08:49:58;63.67;;;41.93;;
34060;SDS011;20336;-33.424;-70.638;2023-09-19T08:52:05;73.53;;;44.47;;
34060;SDS011;20336;-33.424;-70.638;2023-09-19T08:54:35;64.00;;;41.63;;
34060;SDS011;20336;-33.424;-70.638;2023-09-19T08:57:05;59.50;;;36.07;;
34060;SDS011;20336;-33.424;-70.638;2023-09-19T08:59:39;54.83;;;34.40;;
34060;SDS011;20336;-33.424;-70.638;2023-09-19T09:02:12;55.77;;;35.10;;
34060;SDS011;20336;-33.424;-70.638;2023-09-19T09:04:40;55.53;;;33.00;;
34060;SDS011;20336;-33.424;-70.638;2023-09-19T09:07:11;54.80;;;34.47;;
34060;SDS011;20336;-33.424;-70.638;2023-09-19T09:09:38;56.07;;;34.20;;
34060;SDS011;20336;-33.424;-70.638;2023-09-19T09:12:11;54.23;;;33.93;;
34060;SDS011;20336;-33.424;-70.638;2023-09-19T09:14:47;53.47;;;35.17;;
34060;SDS011;20336;-33.424;-70.638;2023-09-19T09:17:15;59.63;;;34.97;;
34060;SDS011;20336;-33.424;-70.638;2023-09-19T09:19:46;56.33;;;34.10;;
34060;SDS011;20336;-33.424;-70.638;2023-09-19T09:22:13;60.13;;;34.50;;
34060;SDS011;20336;-33.424;-70.638;2023-09-19T09:24:52;52.87;;;33.43;;
34060;SDS011;20336;-33.424;-70.638;2023-09-19T09:27:27;59.83;;;31.73;;
34060;SDS011;20336;-33.424;-70.638;2023-09-19T09:29:54;52.53;;;31.93;;
34060;SDS011;20336;-33.424;-70.638;2023-09-19T09:34:54;53.10;;;32.67;;
34060;SDS011;20336;-33.424;-70.638;2023-09-19T09:37:21;53.13;;;31.27;;
34060;SDS011;20336;-33.424;-70.638;2023-09-19T09:39:51;51.93;;;31.63;;
34060;SDS011;20336;-33.424;-70.638;2023-09-19T09:42:29;54.50;;;32.73;;
34060;SDS011;20336;-33.424;-70.638;2023-09-19T09:45:17;49.13;;;30.63;;
34060;SDS011;20336;-33.424;-70.638;2023-09-19T09:47:48;50.37;;;30.80;;
34060;SDS011;20336;-33.424;-70.638;2023-09-19T09:50:26;50.57;;;30.87;;
34060;SDS011;20336;-33.424;-70.638;2023-09-19T09:53:23;48.23;;;29.47;;
34060;SDS011;20336;-33.424;-70.638;2023-09-19T09:56:03;44.77;;;29.60;;
34060;SDS011;20336;-33.424;-70.638;2023-09-19T09:58:37;45.80;;;29.57;;
34060;SDS011;20336;-33.424;-70.638;2023-09-19T10:01:06;50.87;;;28.20;;
34060;SDS011;20336;-33.424;-70.638;2023-09-19T10:03:40;39.53;;;26.13;;
34060;SDS011;20336;-33.424;-70.638;2023-09-19T10:06:15;46.50;;;26.83;;
34060;SDS011;20336;-33.424;-70.638;2023-09-19T10:09:07;49.60;;;28.83;;
34060;SDS011;20336;-33.424;-70.638;2023-09-19T10:11:45;48.67;;;27.50;;
34060;SDS011;20336;-33.424;-70.638;2023-09-19T10:14:16;52.23;;;30.13;;
34060;SDS011;20336;-33.424;-70.638;2023-09-19T10:16:49;48.73;;;31.33;;
34060;SDS011;20336;-33.424;-70.638;2023-09-19T10:19:23;49.00;;;29.77;;
34060;SDS011;20336;-33.424;-70.638;2023-09-19T10:21:56;52.57;;;31.10;;
34060;SDS011;20336;-33.424;-70.638;2023-09-19T10:24:23;48.37;;;29.80;;
34060;SDS011;20336;-33.424;-70.638;2023-09-19T10:26:52;44.47;;;27.13;;
34060;SDS011;20336;-33.424;-70.638;2023-09-19T10:29:20;46.23;;;28.70;;
34060;SDS011;20336;-33.424;-70.638;2023-09-19T10:31:47;42.97;;;26.47;;
34060;SDS011;20336;-33.424;-70.638;2023-09-19T10:34:16;46.37;;;28.23;;
34060;SDS011;20336;-33.424;-70.638;2023-09-19T10:36:46;52.43;;;29.93;;
34060;SDS011;20336;-33.424;-70.638;2023-09-19T10:39:14;52.33;;;30.13;;
34060;SDS011;20336;-33.424;-70.638;2023-09-19T10:41:50;46.87;;;28.27;;
34060;SDS011;20336;-33.424;-70.638;2023-09-19T10:44:28;48.87;;;30.33;;
34060;SDS011;20336;-33.424;-70.638;2023-09-19T10:46:57;44.53;;;27.67;;
34060;SDS011;20336;-33.424;-70.638;2023-09-19T10:49:24;47.80;;;29.23;;
34060;SDS011;20336;-33.424;-70.638;2023-09-19T10:51:52;47.27;;;28.17;;
34060;SDS011;20336;-33.424;-70.638;2023-09-19T10:54:22;42.20;;;27.47;;
34060;SDS011;20336;-33.424;-70.638;2023-09-19T10:56:52;48.93;;;27.37;;
34060;SDS011;20336;-33.424;-70.638;2023-09-19T10:59:20;47.87;;;28.23;;
34060;SDS011;20336;-33.424;-70.638;2023-09-19T11:04:34;43.30;;;27.43;;
34060;SDS011;20336;-33.424;-70.638;2023-09-19T11:07:05;38.87;;;26.03;;
34060;SDS011;20336;-33.424;-70.638;2023-09-19T11:09:52;44.57;;;27.23;;
34060;SDS011;20336;-33.424;-70.638;2023-09-19T11:15:06;46.77;;;26.80;;
34060;SDS011;20336;-33.424;-70.638;2023-09-19T11:17:36;42.60;;;26.00;;
34060;SDS011;20336;-33.424;-70.638;2023-09-19T11:30:38;40.20;;;25.37;;
34060;SDS011;20336;-33.424;-70.638;2023-09-19T11:33:18;40.10;;;25.60;;
34060;SDS011;20336;-33.424;-70.638;2023-09-19T11:36:12;50.57;;;30.07;;
34060;SDS011;20336;-33.424;-70.638;2023-09-19T11:47:14;48.73;;;30.43;;
34060;SDS011;20336;-33.424;-70.638;2023-09-19T11:49:16;46.90;;;29.80;;
34060;SDS011;20336;-33.424;-70.638;2023-09-19T11:51:51;51.10;;;30.17;;
34060;SDS011;20336;-33.424;-70.638;2023-09-19T11:54:19;47.03;;;30.60;;
34060;SDS011;20336;-33.424;-70.638;2023-09-19T11:56:57;47.63;;;30.23;;
34060;SDS011;20336;-33.424;-70.638;2023-09-19T11:59:25;46.17;;;30.40;;
34060;SDS011;20336;-33.424;-70.638;2023-09-19T12:02:05;44.23;;;29.73;;
34060;SDS011;20336;-33.424;-70.638;2023-09-19T12:07:07;45.23;;;28.93;;
34060;SDS011;20336;-33.424;-70.638;2023-09-19T12:09:44;42.33;;;26.97;;
34060;SDS011;20336;-33.424;-70.638;2023-09-19T12:12:24;42.10;;;26.20;;
34060;SDS011;20336;-33.424;-70.638;2023-09-19T12:14:59;40.37;;;24.57;;
34060;SDS011;20336;-33.424;-70.638;2023-09-19T12:17:41;42.30;;;25.53;;
34060;SDS011;20336;-33.424;-70.638;2023-09-19T12:20:09;42.57;;;24.83;;
34060;SDS011;20336;-33.424;-70.638;2023-09-19T12:22:45;36.70;;;23.93;;
34060;SDS011;20336;-33.424;-70.638;2023-09-19T12:25:13;40.43;;;25.27;;
34060;SDS011;20336;-33.424;-70.638;2023-09-19T12:27:51;35.90;;;23.53;;
34060;SDS011;20336;-33.424;-70.638;2023-09-19T12:30:18;41.57;;;24.87;;
34060;SDS011;20336;-33.424;-70.638;2023-09-19T12:32:48;37.93;;;23.93;;
34060;SDS011;20336;-33.424;-70.638;2023-09-19T12:35:28;35.47;;;23.47;;
34060;SDS011;20336;-33.424;-70.638;2023-09-19T12:37:56;42.93;;;24.77;;
34060;SDS011;20336;-33.424;-70.638;2023-09-19T12:40:23;39.03;;;23.73;;
34060;SDS011;20336;-33.424;-70.638;2023-09-19T12:42:55;37.27;;;23.70;;
34060;SDS011;20336;-33.424;-70.638;2023-09-19T12:45:24;38.77;;;24.80;;
34060;SDS011;20336;-33.424;-70.638;2023-09-19T12:50:36;35.33;;;23.60;;
34060;SDS011;20336;-33.424;-70.638;2023-09-19T12:53:26;41.77;;;26.50;;
34060;SDS011;20336;-33.424;-70.638;2023-09-19T12:56:00;39.13;;;24.43;;
34060;SDS011;20336;-33.424;-70.638;2023-09-19T12:58:28;38.43;;;25.00;;
34060;SDS011;20336;-33.424;-70.638;2023-09-19T13:00:56;41.80;;;25.27;;
34060;SDS011;20336;-33.424;-70.638;2023-09-19T13:06:00;42.22;;;25.48;;
34060;SDS011;20336;-33.424;-70.638;2023-09-19T13:11:09;40.83;;;24.37;;
34060;SDS011;20336;-33.424;-70.638;2023-09-19T13:13:39;37.73;;;24.03;;
34060;SDS011;20336;-33.424;-70.638;2023-09-19T13:16:06;43.05;;;25.23;;
34060;SDS011;20336;-33.424;-70.638;2023-09-19T13:18:50;39.33;;;24.42;;
34060;SDS011;20336;-33.424;-70.638;2023-09-19T13:21:27;44.75;;;25.42;;
34060;SDS011;20336;-33.424;-70.638;2023-09-19T13:23:54;38.80;;;23.98;;
34060;SDS011;20336;-33.424;-70.638;2023-09-19T13:26:25;37.53;;;25.33;;
34060;SDS011;20336;-33.424;-70.638;2023-09-19T13:28:56;39.40;;;25.05;;
34060;SDS011;20336;-33.424;-70.638;2023-09-19T13:31:23;39.22;;;24.98;;
34060;SDS011;20336;-33.424;-70.638;2023-09-19T13:33:50;46.83;;;27.05;;
34060;SDS011;20336;-33.424;-70.638;2023-09-19T13:36:17;36.72;;;25.05;;
34060;SDS011;20336;-33.424;-70.638;2023-09-19T13:38:44;35.55;;;24.50;;
34060;SDS011;20336;-33.424;-70.638;2023-09-19T13:41:14;40.78;;;24.80;;
34060;SDS011;20336;-33.424;-70.638;2023-09-19T13:43:41;39.05;;;24.83;;
34060;SDS011;20336;-33.424;-70.638;2023-09-19T13:46:13;37.25;;;23.95;;
34060;SDS011;20336;-33.424;-70.638;2023-09-19T13:48:42;36.08;;;24.58;;
34060;SDS011;20336;-33.424;-70.638;2023-09-19T13:51:08;41.40;;;25.05;;
34060;SDS011;20336;-33.424;-70.638;2023-09-19T13:53:36;40.85;;;25.35;;
34060;SDS011;20336;-33.424;-70.638;2023-09-19T13:56:03;35.63;;;24.23;;
34060;SDS011;20336;-33.424;-70.638;2023-09-19T13:58:30;39.92;;;25.33;;
34060;SDS011;20336;-33.424;-70.638;2023-09-19T14:00:59;37.92;;;24.52;;
34060;SDS011;20336;-33.424;-70.638;2023-09-19T14:03:26;35.88;;;24.08;;
34060;SDS011;20336;-33.424;-70.638;2023-09-19T14:05:54;34.28;;;23.73;;
34060;SDS011;20336;-33.424;-70.638;2023-09-19T14:08:21;40.83;;;24.58;;
34060;SDS011;20336;-33.424;-70.638;2023-09-19T14:10:49;39.50;;;24.73;;
34060;SDS011;20336;-33.424;-70.638;2023-09-19T14:13:15;41.25;;;25.30;;
34060;SDS011;20336;-33.424;-70.638;2023-09-19T14:15:42;41.45;;;25.52;;
34060;SDS011;20336;-33.424;-70.638;2023-09-19T14:18:09;38.90;;;24.35;;
34060;SDS011;20336;-33.424;-70.638;2023-09-19T14:20:39;38.83;;;24.45;;
34060;SDS011;20336;-33.424;-70.638;2023-09-19T14:23:07;40.65;;;24.75;;
34060;SDS011;20336;-33.424;-70.638;2023-09-19T14:25:34;34.10;;;23.67;;
34060;SDS011;20336;-33.424;-70.638;2023-09-19T14:28:02;37.25;;;24.58;;
34060;SDS011;20336;-33.424;-70.638;2023-09-19T14:30:29;39.05;;;25.52;;
34060;SDS011;20336;-33.424;-70.638;2023-09-19T14:32:56;38.25;;;24.85;;
34060;SDS011;20336;-33.424;-70.638;2023-09-19T14:35:23;39.58;;;24.40;;
34060;SDS011;20336;-33.424;-70.638;2023-09-19T14:37:50;32.05;;;22.73;;
34060;SDS011;20336;-33.424;-70.638;2023-09-19T14:40:18;37.25;;;24.80;;
34060;SDS011;20336;-33.424;-70.638;2023-09-19T14:42:45;39.67;;;25.67;;